createdAt,value
2023-05-01T00:03:44.970Z,18.90
2023-05-01T00:08:47.650Z,18.70
2023-05-01T00:13:49.714Z,18.80
2023-05-01T00:18:52.471Z,18.80
2023-05-01T00:23:55.467Z,18.90
2023-05-01T00:28:58.180Z,18.90
2023-05-01T00:34:00.315Z,19.00
2023-05-01T00:39:02.429Z,19.30
2023-05-01T00:44:04.511Z,19.50
2023-05-01T00:49:06.552Z,19.70
2023-05-01T00:54:08.576Z,19.70
2023-05-01T00:59:10.673Z,19.70
2023-05-01T01:04:13.357Z,19.70
2023-05-01T01:09:21.394Z,19.90
2023-05-01T01:14:43.692Z,20.10
2023-05-01T01:20:06.469Z,20.00
2023-05-01T01:25:28.099Z,20.30
2023-05-01T01:30:30.236Z,20.50
2023-05-01T01:35:33.994Z,20.60
2023-05-01T01:40:44.119Z,20.60
2023-05-01T01:45:47.464Z,20.60
2023-05-01T01:50:52.527Z,20.60
2023-05-01T01:55:55.031Z,21.30
2023-05-01T02:00:57.882Z,20.80
2023-05-01T02:06:00.542Z,20.80
2023-05-01T02:11:03.557Z,20.80
2023-05-01T02:16:06.405Z,20.90
2023-05-01T02:21:09.573Z,20.90
2023-05-01T02:26:16.936Z,21.10
2023-05-01T02:31:19.015Z,21.00
2023-05-01T02:36:21.521Z,21.00
2023-05-01T02:41:25.380Z,21.10
2023-05-01T02:46:28.062Z,21.10
2023-05-01T02:51:33.853Z,21.20
2023-05-01T02:56:36.221Z,21.30
2023-05-01T03:01:39.731Z,21.50
2023-05-01T03:06:41.818Z,21.60
2023-05-01T03:11:44.010Z,21.70
2023-05-01T03:16:46.143Z,21.70
2023-05-01T03:21:48.237Z,21.80
2023-05-01T03:26:50.263Z,21.90
2023-05-01T03:31:52.353Z,22.00
2023-05-01T03:36:54.520Z,22.00
2023-05-01T03:41:57.474Z,22.10
2023-05-01T03:46:59.637Z,22.00
2023-05-01T03:52:02.613Z,22.00
2023-05-01T03:57:04.899Z,22.10
2023-05-01T04:02:06.997Z,22.20
2023-05-01T04:07:09.561Z,22.30
2023-05-01T04:12:11.899Z,22.20
2023-05-01T04:17:14.031Z,22.20
2023-05-01T04:22:16.653Z,22.20
2023-05-01T04:27:19.613Z,22.10
2023-05-01T04:32:21.709Z,22.20
2023-05-01T04:37:23.786Z,22.30
2023-05-01T04:42:30.416Z,22.50
2023-05-01T04:47:32.803Z,22.60
2023-05-01T04:52:35.921Z,22.80
2023-05-01T04:57:38.544Z,22.80
2023-05-01T05:02:41.368Z,23.00
2023-05-01T05:07:45.054Z,23.00
2023-05-01T05:12:59.593Z,23.20
2023-05-01T05:18:03.018Z,23.40
2023-05-01T05:23:07.354Z,23.50
2023-05-01T05:28:10.513Z,23.60
2023-05-01T05:33:13.356Z,23.60
2023-05-01T05:38:15.634Z,23.70
2023-05-01T05:43:18.370Z,23.60
2023-05-01T05:48:20.749Z,23.60
2023-05-01T05:53:25.570Z,23.60
2023-05-01T05:58:28.546Z,23.70
2023-05-01T06:03:30.908Z,23.70
2023-05-01T06:08:35.414Z,23.70
2023-05-01T06:13:39.552Z,23.40
2023-05-01T06:18:42.908Z,23.40
2023-05-01T06:23:46.572Z,23.10
2023-05-01T06:28:49.439Z,23.00
2023-05-01T06:33:51.578Z,22.90
2023-05-01T06:38:54.853Z,22.90
2023-05-01T06:43:58.504Z,22.80
2023-05-01T06:49:00.554Z,22.80
2023-05-01T06:54:02.872Z,22.30
2023-05-01T06:59:05.758Z,22.90
2023-05-01T07:04:08.760Z,21.80
2023-05-01T07:09:11.795Z,21.40
2023-05-01T07:14:13.798Z,21.20
2023-05-01T07:19:15.793Z,20.70
2023-05-01T07:24:17.810Z,19.80
2023-05-01T07:29:19.897Z,19.70
2023-05-01T07:34:21.915Z,19.60
2023-05-01T07:39:23.913Z,19.40
2023-05-01T07:44:26.082Z,20.20
2023-05-01T07:49:28.110Z,18.20
2023-05-01T07:54:30.223Z,18.10
2023-05-01T07:59:32.253Z,17.90
2023-05-01T08:04:34.378Z,17.50
2023-05-01T08:09:36.389Z,17.20
2023-05-01T08:14:38.389Z,17.00
2023-05-01T08:19:40.426Z,16.70
2023-05-01T08:24:42.916Z,16.30
2023-05-01T08:34:47.359Z,15.60
2023-05-01T08:44:54.375Z,14.90
2023-05-01T08:49:57.999Z,14.80
2023-05-01T08:55:01.413Z,14.40
2023-05-01T09:00:05.070Z,14.20
2023-05-01T09:05:08.213Z,13.80
2023-05-01T09:10:11.360Z,13.50
2023-05-01T09:15:13.582Z,13.20
2023-05-01T09:20:15.723Z,13.80
2023-05-01T09:30:31.569Z,12.20
2023-05-01T09:35:47.844Z,12.10
2023-05-01T09:40:50.264Z,12.40
2023-05-01T09:46:01.399Z,10.40
2023-05-01T09:51:19.748Z,11.00
2023-05-01T09:56:21.864Z,10.50
2023-05-01T10:01:50.816Z,10.20
2023-05-01T10:06:53.240Z,8.80
2023-05-01T10:11:57.636Z,9.10
2023-05-01T10:17:00.018Z,9.10
2023-05-01T10:22:02.269Z,8.70
2023-05-01T10:27:05.602Z,8.60
2023-05-01T10:32:08.423Z,8.20
2023-05-01T10:37:18.275Z,8.00
2023-05-01T10:42:20.377Z,7.80
2023-05-01T10:47:27.649Z,8.10
2023-05-01T10:52:29.885Z,7.10
2023-05-01T10:57:41.890Z,7.10
2023-05-01T11:02:43.923Z,6.80
2023-05-01T11:07:46.598Z,6.50
2023-05-01T11:12:51.435Z,5.10
2023-05-01T11:17:53.574Z,4.90
2023-05-01T11:22:56.504Z,4.60
2023-05-01T11:27:59.192Z,4.30
2023-05-01T11:33:01.372Z,4.00
2023-05-01T11:38:03.511Z,4.30
2023-05-01T11:43:06.874Z,4.00
2023-05-01T11:48:16.481Z,3.80
2023-05-01T11:53:18.989Z,3.60
2023-05-01T11:58:31.921Z,2.90
2023-05-01T12:03:43.905Z,2.90
2023-05-01T12:08:48.473Z,2.60
2023-05-01T12:13:50.671Z,1.80
2023-05-01T12:18:53.313Z,2.90
2023-05-01T12:23:55.404Z,2.90
2023-05-01T12:28:57.409Z,2.40
2023-05-01T12:34:00.673Z,2.40
2023-05-01T12:39:07.154Z,2.40
2023-05-01T12:44:22.738Z,3.00
2023-05-01T12:49:25.471Z,2.10
2023-05-01T12:54:29.178Z,1.50
2023-05-01T12:59:31.434Z,1.40
2023-05-01T13:04:34.498Z,1.30
2023-05-01T13:09:36.899Z,1.50
2023-05-01T13:14:40.324Z,1.60
2023-05-01T13:19:42.366Z,1.80
2023-05-01T13:24:47.267Z,1.80
2023-05-01T13:29:57.866Z,2.30
2023-05-01T13:35:03.082Z,2.20
2023-05-01T13:40:05.658Z,2.20
2023-05-01T13:45:07.871Z,1.70
2023-05-01T13:50:10.906Z,2.00
2023-05-01T13:55:13.612Z,1.00
2023-05-01T14:05:24.028Z,1.00
2023-05-01T14:10:27.757Z,1.00
2023-05-01T14:20:35.316Z,1.00
2023-05-01T14:25:38.304Z,1.00
2023-05-01T14:30:41.107Z,1.00
2023-05-01T14:35:50.892Z,1.00
2023-05-01T14:40:52.954Z,1.00
2023-05-01T14:45:55.039Z,1.00
2023-05-01T14:50:59.384Z,1.00
2023-05-01T14:56:01.441Z,1.00
2023-05-01T15:01:03.761Z,1.00
2023-05-01T15:06:06.503Z,1.00
2023-05-01T15:11:08.748Z,1.00
2023-05-01T15:16:13.756Z,1.00
2023-05-01T15:21:15.900Z,1.00
2023-05-01T15:26:17.920Z,1.00
2023-05-01T15:31:19.983Z,1.00
2023-05-01T15:36:22.100Z,1.00
2023-05-01T15:41:24.137Z,1.00
2023-05-01T15:46:27.248Z,1.00
2023-05-01T15:51:32.371Z,1.00
2023-05-01T15:56:36.419Z,1.00
2023-05-01T16:01:38.604Z,1.00
2023-05-01T16:06:41.192Z,1.00
2023-05-01T16:11:44.005Z,1.00
2023-05-01T16:16:46.225Z,1.00
2023-05-01T16:21:48.498Z,1.00
2023-05-01T16:26:50.903Z,1.00
2023-05-01T16:31:53.286Z,1.00
2023-05-01T16:36:56.394Z,1.00
2023-05-01T16:41:58.490Z,1.00
2023-05-01T16:47:00.763Z,1.00
2023-05-01T16:52:04.254Z,1.00
2023-05-01T16:57:07.272Z,1.00
2023-05-01T17:02:09.587Z,1.00
2023-05-01T17:07:12.021Z,1.00
2023-05-01T17:12:14.906Z,1.00
2023-05-01T17:17:17.810Z,1.00
2023-05-01T17:22:19.956Z,1.00
2023-05-01T17:27:21.942Z,1.00
2023-05-01T17:32:35.779Z,1.00
2023-05-01T17:37:41.860Z,1.30
2023-05-01T17:42:44.519Z,2.60
2023-05-01T17:47:46.701Z,2.80
2023-05-01T17:52:48.762Z,3.70
2023-05-01T17:57:52.180Z,4.30
2023-05-01T18:02:54.541Z,5.00
2023-05-01T18:07:56.637Z,5.40
2023-05-01T18:12:58.683Z,5.30
2023-05-01T18:18:00.878Z,6.60
2023-05-01T18:23:04.017Z,6.70
2023-05-01T18:28:06.538Z,7.10
2023-05-01T18:33:08.661Z,7.40
2023-05-01T18:38:10.709Z,7.80
2023-05-01T18:43:14.189Z,8.10
2023-05-01T18:48:16.254Z,8.20
2023-05-01T18:53:18.354Z,8.60
2023-05-01T19:08:25.711Z,10.10
2023-05-01T19:13:27.728Z,10.90
2023-05-01T19:18:29.754Z,11.40
2023-05-01T19:23:35.024Z,11.80
2023-05-01T19:28:38.611Z,12.30
2023-05-01T19:33:41.061Z,12.60
2023-05-01T19:38:45.388Z,13.70
2023-05-01T19:43:47.510Z,13.50
2023-05-01T19:48:50.511Z,13.50
2023-05-01T19:53:52.547Z,13.50
2023-05-01T19:58:55.124Z,14.20
2023-05-01T20:03:57.209Z,13.60
2023-05-01T20:08:59.273Z,13.50
2023-05-01T20:14:03.527Z,13.70
2023-05-01T20:19:06.256Z,14.00
2023-05-01T20:24:08.250Z,14.30
2023-05-01T20:29:10.297Z,14.30
2023-05-01T20:34:12.320Z,14.40
2023-05-01T20:39:14.390Z,14.70
2023-05-01T20:44:16.425Z,14.80
2023-05-01T20:49:20.368Z,15.10
2023-05-01T20:54:22.578Z,15.70
2023-05-01T20:59:24.661Z,15.80
2023-05-01T21:04:26.702Z,16.20
2023-05-01T21:09:29.023Z,16.20
2023-05-01T21:14:31.055Z,16.50
2023-05-01T21:19:43.450Z,16.70
2023-05-01T21:24:47.788Z,16.90
2023-05-01T21:29:52.878Z,17.00
2023-05-01T21:34:54.992Z,17.20
2023-05-01T21:40:00.799Z,17.20
2023-05-01T21:45:10.294Z,17.10
2023-05-01T21:50:13.332Z,17.50
2023-05-01T22:00:19.022Z,17.40
2023-05-01T22:05:22.602Z,17.60
2023-05-01T22:10:25.075Z,17.60
2023-05-01T22:15:27.100Z,17.60
2023-05-01T22:20:29.378Z,18.40
2023-05-01T22:25:31.699Z,18.10
2023-05-01T22:30:34.808Z,18.10
2023-05-01T22:35:36.867Z,18.30
2023-05-01T22:40:38.933Z,18.60
2023-05-01T22:45:40.948Z,18.40
2023-05-01T22:50:42.965Z,18.30
2023-05-01T22:55:45.005Z,18.30
2023-05-01T23:00:47.071Z,18.60
2023-05-01T23:05:49.111Z,18.70
2023-05-01T23:10:51.230Z,18.90
2023-05-01T23:15:53.732Z,19.20
2023-05-01T23:20:56.066Z,19.10
2023-05-01T23:25:58.247Z,19.20
2023-05-01T23:31:01.390Z,19.30
2023-05-01T23:36:03.864Z,19.40
2023-05-01T23:41:06.683Z,19.50
2023-05-01T23:46:08.725Z,19.40
2023-05-01T23:51:10.761Z,19.50
2023-05-01T23:56:12.822Z,19.50
